Time;durP1;ratioP1;P1;durP2;ratioP2;P2;SDS_P1;SDS_P2;PMS_P1;PMS_P2;Temp;Humidity;BMP_temperature;BMP_pressure;BME280_temperature;BME280_humidity;BME280_pressure;Samples;Min_cycle;Max_cycle;Signal;HPM_P1;HPM_P2
2020/12/23 00:01:19;;;;;;;51.48;28.57;;;;;;;3.25;75.43;96650.13;1817563;79;21229;-80
2020/12/23 00:03:48;;;;;;;38.02;21.75;;;;;;;3.29;75.18;96648.98;1818034;78;21233;-83
2020/12/23 00:06:17;;;;;;;26.80;15.55;;;;;;;3.32;75.18;96646.64;1817896;78;21066;-81
2020/12/23 00:08:48;;;;;;;17.60;10.28;;;;;;;3.31;75.29;96639.30;1817190;78;21137;-80
2020/12/23 00:11:18;;;;;;;15.43;9.03;;;;;;;3.36;75.75;96639.00;1817518;78;21045;-81
2020/12/23 00:13:47;;;;;;;16.55;10.08;;;;;;;3.49;75.94;96630.72;1808412;78;21543;-79
2020/12/23 00:16:16;;;;;;;14.23;8.03;;;;;;;3.60;75.97;96632.13;1806573;79;21417;-81
2020/12/23 00:18:44;;;;;;;13.22;6.12;;;;;;;3.73;75.74;96633.41;1806270;79;21063;-81
2020/12/23 00:21:15;;;;;;;5.78;2.42;;;;;;;3.81;75.62;96636.81;1806019;79;21131;-80
2020/12/23 00:23:44;;;;;;;3.83;1.60;;;;;;;3.89;75.73;96630.11;1806299;79;21007;-79
2020/12/23 00:26:14;;;;;;;3.20;1.50;;;;;;;4.01;75.85;96624.05;1806017;78;21477;-79
2020/12/23 00:28:44;;;;;;;2.42;1.02;;;;;;;4.11;75.77;96642.48;1806442;79;21471;-80
2020/12/23 00:31:15;;;;;;;3.02;1.20;;;;;;;4.19;75.77;96664.08;1806494;79;21126;-80
2020/12/23 00:33:45;;;;;;;7.35;2.55;;;;;;;4.24;75.74;96668.50;1806402;78;21118;-78
2020/12/23 00:36:14;;;;;;;6.12;2.87;;;;;;;4.29;75.67;96667.24;1806150;79;21048;-79
2020/12/23 00:38:43;;;;;;;4.33;1.80;;;;;;;4.35;75.66;96658.62;1806508;78;21051;-80
2020/12/23 00:41:12;;;;;;;5.42;2.17;;;;;;;4.43;75.48;96652.39;1806019;79;22664;-79
2020/12/23 00:43:42;;;;;;;5.95;2.22;;;;;;;4.54;75.13;96654.59;1806237;78;21131;-80
2020/12/23 00:46:12;;;;;;;5.92;2.60;;;;;;;4.64;74.93;96656.55;1806159;79;21126;-81
2020/12/23 00:48:41;;;;;;;5.00;2.40;;;;;;;4.72;74.94;96649.82;1806192;79;21533;-80
2020/12/23 00:51:11;;;;;;;8.35;4.10;;;;;;;4.83;74.68;96647.73;1806314;79;21119;-80
2020/12/23 00:53:41;;;;;;;7.87;3.75;;;;;;;4.91;74.18;96635.42;1806567;79;22402;-80
2020/12/23 00:56:11;;;;;;;9.33;4.78;;;;;;;4.95;73.76;96639.48;1806246;79;21118;-80
2020/12/23 00:58:39;;;;;;;5.35;2.47;;;;;;;5.04;73.38;96640.09;1806153;79;21130;-78
2020/12/23 01:01:08;;;;;;;10.93;5.50;;;;;;;5.11;72.79;96633.50;1806105;79;21599;-80
2020/12/23 01:03:39;;;;;;;9.13;3.80;;;;;;;5.13;72.37;96625.07;1806093;79;21182;-79
2020/12/23 01:06:09;;;;;;;7.67;3.75;;;;;;;5.13;72.19;96622.94;1806102;79;21198;-80
2020/12/23 01:08:42;;;;;;;8.33;4.20;;;;;;;5.16;72.07;96622.25;1806227;78;21623;-80
2020/12/23 01:11:11;;;;;;;5.15;2.22;;;;;;;5.16;71.86;96614.42;1806090;79;21111;-80
2020/12/23 01:13:43;;;;;;;6.33;2.75;;;;;;;5.13;71.89;96613.80;1806067;78;21221;-81
2020/12/23 01:16:11;;;;;;;5.65;2.75;;;;;;;5.15;71.88;96618.42;1806420;78;21139;-79
2020/12/23 01:18:42;;;;;;;4.75;2.08;;;;;;;5.22;71.57;96611.82;1806280;79;22091;-79
2020/12/23 01:21:11;;;;;;;4.28;1.67;;;;;;;5.23;71.37;96614.31;1805995;79;21607;-82
2020/12/23 01:23:41;;;;;;;2.60;1.15;;;;;;;5.26;71.16;96619.28;1806535;79;21142;-80
2020/12/23 01:26:10;;;;;;;2.15;1.02;;;;;;;5.30;70.81;96619.42;1806679;79;21103;-78
2020/12/23 01:28:40;;;;;;;7.90;3.35;;;;;;;5.31;70.54;96618.47;1806247;79;21142;-80
2020/12/23 01:31:08;;;;;;;8.03;3.60;;;;;;;5.33;70.54;96616.56;1806704;79;21357;-79
2020/12/23 01:33:37;;;;;;;3.72;1.40;;;;;;;5.36;70.36;96614.20;1806261;79;21209;-79
2020/12/23 01:36:07;;;;;;;7.30;3.65;;;;;;;5.39;70.27;96613.12;1806021;79;21043;-80
2020/12/23 01:38:37;;;;;;;5.03;2.45;;;;;;;5.46;69.84;96603.91;1806187;78;21123;-80
2020/12/23 01:41:06;;;;;;;7.15;3.75;;;;;;;5.49;69.74;96610.19;1806184;79;21083;-78
2020/12/23 01:43:35;;;;;;;5.12;2.27;;;;;;;5.50;69.34;96610.06;1806345;79;21208;-80
2020/12/23 01:46:03;;;;;;;7.53;4.47;;;;;;;5.47;69.42;96616.01;1806498;78;21031;-80
2020/12/23 01:48:33;;;;;;;12.43;7.75;;;;;;;5.48;69.60;96615.06;1806699;79;21087;-78
2020/12/23 01:51:02;;;;;;;16.10;9.25;;;;;;;5.47;69.80;96605.09;1806107;79;21122;-79
2020/12/23 01:53:31;;;;;;;22.13;13.98;;;;;;;5.43;69.97;96613.27;1805951;79;21154;-80
2020/12/23 01:56:04;;;;;;;23.55;15.18;;;;;;;5.36;70.38;96623.34;1806426;78;21836;-79
2020/12/23 01:58:33;;;;;;;20.27;12.88;;;;;;;5.26;70.78;96629.72;1806424;79;21082;-79
2020/12/23 02:01:02;;;;;;;18.05;10.65;;;;;;;5.15;70.76;96635.39;1806037;79;21576;-79
2020/12/23 02:03:32;;;;;;;13.90;8.55;;;;;;;4.99;70.98;96637.02;1805998;79;21574;-79
2020/12/23 02:06:01;;;;;;;14.35;8.45;;;;;;;4.96;71.10;96637.23;1806042;79;21571;-79
2020/12/23 02:08:31;;;;;;;19.55;10.95;;;;;;;4.95;71.20;96640.79;1806010;79;21205;-80
2020/12/23 02:11:00;;;;;;;15.50;9.53;;;;;;;4.96;71.46;96635.92;1806386;78;21134;-80
2020/12/23 02:13:37;;;;;;;19.87;12.20;;;;;;;4.93;71.53;96631.78;1806126;79;21190;-79
2020/12/23 02:16:06;;;;;;;15.28;9.45;;;;;;;4.88;71.71;96633.06;1809610;78;21035;-79
2020/12/23 02:18:36;;;;;;;17.55;10.28;;;;;;;4.82;72.12;96632.56;1808833;79;21090;-79
2020/12/23 02:21:07;;;;;;;10.53;5.60;;;;;;;4.79;72.76;96621.03;1811395;78;21368;-80
2020/12/23 02:23:36;;;;;;;7.05;3.70;;;;;;;4.85;73.08;96621.53;1811286;79;21093;-80
2020/12/23 02:26:06;;;;;;;4.87;2.10;;;;;;;4.90;73.28;96619.42;1811618;79;21102;-79
2020/12/23 02:28:35;;;;;;;7.15;2.58;;;;;;;4.95;73.09;96610.78;1811334;79;21526;-78
2020/12/23 02:31:04;;;;;;;5.87;2.60;;;;;;;5.02;72.94;96613.29;1811265;79;21492;-78
2020/12/23 02:33:34;;;;;;;5.47;1.82;;;;;;;5.09;72.45;96592.31;1811316;79;21648;-81
2020/12/23 02:36:03;;;;;;;4.10;1.50;;;;;;;5.12;72.34;96600.40;1811400;79;21511;-79
2020/12/23 02:38:33;;;;;;;5.47;2.10;;;;;;;5.18;72.18;96585.10;1811518;79;21138;-80
2020/12/23 02:41:02;;;;;;;3.92;1.80;;;;;;;5.23;71.98;96584.77;1811317;79;21173;-78
2020/12/23 02:43:32;;;;;;;5.10;2.15;;;;;;;5.30;71.68;96582.87;1811617;79;21115;-79
2020/12/23 02:46:01;;;;;;;3.95;1.77;;;;;;;5.32;71.55;96578.83;1811278;79;21706;-78
2020/12/23 02:48:31;;;;;;;5.70;2.60;;;;;;;5.33;71.27;96576.56;1811248;79;21141;-78
2020/12/23 02:50:59;;;;;;;5.00;1.98;;;;;;;5.35;71.11;96582.53;1811637;79;21122;-79
2020/12/23 02:53:28;;;;;;;4.05;1.57;;;;;;;5.36;70.95;96588.09;1811697;79;21200;-78
2020/12/23 02:55:59;;;;;;;4.08;1.80;;;;;;;5.40;70.93;96587.41;1811739;79;21433;-79
2020/12/23 02:58:28;;;;;;;3.62;1.70;;;;;;;5.43;70.62;96587.98;1789626;79;22197;-80
2020/12/23 03:00:57;;;;;;;4.45;2.00;;;;;;;5.42;70.59;96586.80;1811129;79;21174;-79
2020/12/23 03:03:25;;;;;;;4.20;2.12;;;;;;;5.45;70.54;96587.37;1811593;79;21584;-79
2020/12/23 03:05:55;;;;;;;5.37;2.45;;;;;;;5.47;70.45;96592.03;1811528;79;21039;-79
2020/12/23 03:08:23;;;;;;;4.17;2.22;;;;;;;5.54;70.45;96596.30;1811321;79;21114;-78
2020/12/23 03:10:52;;;;;;;8.35;3.87;;;;;;;5.61;70.11;96585.27;1811181;79;21202;-78
2020/12/23 03:13:22;;;;;;;5.85;2.67;;;;;;;5.62;69.98;96579.08;1810992;78;21161;-78
2020/12/23 03:15:51;;;;;;;9.00;4.30;;;;;;;5.67;69.71;96587.05;1811134;79;21198;-79
2020/12/23 03:18:20;;;;;;;6.42;2.67;;;;;;;5.69;69.58;96588.58;1811161;79;21170;-79
2020/12/23 03:20:48;;;;;;;10.85;4.08;;;;;;;5.74;69.32;96585.14;1811281;79;21416;-80
2020/12/23 03:23:18;;;;;;;20.35;7.40;;;;;;;5.80;69.23;96586.44;1811525;79;21200;-79
2020/12/23 03:25:47;;;;;;;18.42;7.45;;;;;;;5.84;68.99;96582.17;1789101;79;21123;-77
2020/12/23 03:28:16;;;;;;;11.90;4.95;;;;;;;5.92;68.78;96578.16;1811602;79;21050;-79
2020/12/23 03:30:46;;;;;;;13.43;5.78;;;;;;;6.00;68.39;96578.40;1811644;79;21217;-78
2020/12/23 03:33:14;;;;;;;20.50;8.73;;;;;;;6.02;68.29;96578.63;1811705;79;21484;-79
2020/12/23 03:35:44;;;;;;;15.35;5.72;;;;;;;6.08;67.92;96583.84;1811226;79;22100;-80
2020/12/23 03:38:13;;;;;;;12.47;4.97;;;;;;;6.09;67.62;96585.02;1811250;79;21571;-79
2020/12/23 03:40:42;;;;;;;10.55;4.22;;;;;;;6.11;67.50;96583.61;1811098;79;21142;-77
2020/12/23 03:43:10;;;;;;;9.10;4.08;;;;;;;6.08;67.20;96584.67;1811306;79;21189;-79
2020/12/23 03:45:40;;;;;;;10.08;4.15;;;;;;;6.06;67.17;96585.75;1811233;79;21182;-78
2020/12/23 03:48:09;;;;;;;7.35;3.22;;;;;;;6.05;66.89;96588.02;1811330;79;21430;-79
2020/12/23 03:50:38;;;;;;;10.23;5.10;;;;;;;5.97;66.95;96584.69;1811159;79;21165;-80
2020/12/23 03:53:07;;;;;;;5.15;2.45;;;;;;;5.96;66.93;96586.12;1811588;79;21074;-79
2020/12/23 03:55:36;;;;;;;5.78;2.50;;;;;;;5.93;66.89;96592.88;1811543;79;21063;-78
2020/12/23 03:58:05;;;;;;;7.90;3.20;;;;;;;5.90;66.87;96593.45;1811384;79;21591;-78
2020/12/23 04:00:34;;;;;;;4.42;1.90;;;;;;;5.93;66.89;96604.19;1811229;79;21790;-79
2020/12/23 04:03:03;;;;;;;5.00;2.00;;;;;;;5.93;66.86;96600.27;1811068;79;21587;-79
2020/12/23 04:05:33;;;;;;;6.60;2.80;;;;;;;5.93;66.91;96609.42;1811306;78;21213;-80
2020/12/23 04:08:03;;;;;;;4.28;1.57;;;;;;;5.94;66.94;96608.94;1811391;79;21126;-78
2020/12/23 04:10:33;;;;;;;7.90;3.50;;;;;;;5.98;66.87;96611.17;1811127;79;21082;-78
2020/12/23 04:13:01;;;;;;;6.12;3.15;;;;;;;5.97;67.00;96618.66;1811201;79;21366;-79
2020/12/23 04:15:30;;;;;;;9.85;4.50;;;;;;;5.97;67.46;96619.14;1811396;79;21133;-79
2020/12/23 04:17:59;;;;;;;6.08;2.67;;;;;;;5.97;67.51;96618.66;1811389;79;21221;-78
2020/12/23 04:20:28;;;;;;;4.50;2.27;;;;;;;6.03;67.40;96610.81;1811421;79;21488;-80
2020/12/23 04:22:57;;;;;;;6.80;3.30;;;;;;;6.10;67.26;96616.73;1811449;79;21039;-80
2020/12/23 04:25:28;;;;;;;5.62;2.98;;;;;;;6.14;66.98;96612.94;1811298;79;21209;-79
2020/12/23 04:27:57;;;;;;;5.53;2.55;;;;;;;6.19;66.78;96613.89;1811171;79;21090;-80
2020/12/23 04:30:26;;;;;;;4.60;2.15;;;;;;;6.24;66.54;96618.28;1811488;79;21126;-79
2020/12/23 04:32:56;;;;;;;3.45;1.60;;;;;;;6.29;66.38;96617.45;1811334;79;21062;-79
2020/12/23 04:35:25;;;;;;;3.77;1.75;;;;;;;6.33;66.16;96611.00;1811375;79;21055;-80
2020/12/23 04:37:53;;;;;;;4.55;2.05;;;;;;;6.31;66.07;96609.00;1811237;79;21411;-80
2020/12/23 04:40:22;;;;;;;4.15;1.72;;;;;;;6.29;66.01;96608.78;1811336;79;21130;-79
2020/12/23 04:42:54;;;;;;;6.50;2.90;;;;;;;6.25;66.13;96601.64;1811589;79;21591;-79
2020/12/23 04:45:24;;;;;;;5.50;1.92;;;;;;;6.26;66.21;96604.61;1811970;79;21114;-80
2020/12/23 04:47:53;;;;;;;6.92;3.12;;;;;;;6.24;66.23;96609.61;1811867;79;21174;-79
2020/12/23 04:50:22;;;;;;;7.45;3.60;;;;;;;6.25;66.36;96606.04;1811483;79;21373;-80
2020/12/23 04:52:51;;;;;;;6.75;3.22;;;;;;;6.25;66.27;96602.12;1811512;79;21217;-79
2020/12/23 04:55:19;;;;;;;5.80;2.55;;;;;;;6.26;66.35;96595.45;1811624;79;21579;-79
2020/12/23 04:57:48;;;;;;;9.45;5.30;;;;;;;6.27;66.33;96598.41;1811517;79;21054;-80
2020/12/23 05:00:17;;;;;;;9.98;4.75;;;;;;;6.26;66.32;96603.30;1811767;79;21039;-79
2020/12/23 05:02:46;;;;;;;5.50;2.52;;;;;;;6.25;66.43;96611.27;1811627;79;22183;-79
2020/12/23 05:05:17;;;;;;;6.40;2.42;;;;;;;6.27;66.60;96611.97;1811610;79;21059;-81
2020/12/23 05:07:47;;;;;;;5.37;2.42;;;;;;;6.32;66.49;96615.88;1811554;79;21071;-79
2020/12/23 05:10:16;;;;;;;7.37;3.50;;;;;;;6.33;66.53;96607.08;1811618;79;21139;-81
2020/12/23 05:12:46;;;;;;;10.28;5.00;;;;;;;6.37;66.58;96616.35;1811468;79;21071;-81
2020/12/23 05:15:16;;;;;;;11.18;5.80;;;;;;;6.39;66.61;96617.05;1787160;78;21422;-79
2020/12/23 05:17:50;;;;;;;11.35;5.05;;;;;;;6.45;66.56;96610.98;1760945;80;21138;-79
2020/12/23 05:20:19;;;;;;;8.20;3.92;;;;;;;6.43;66.39;96616.34;1782125;80;21237;-81
2020/12/23 05:25:27;;;;;;;7.72;3.15;;;;;;;6.48;66.43;96615.98;1875426;75;22724;-81
2020/12/23 05:27:57;;;;;;;11.88;6.40;;;;;;;6.40;66.56;96626.58;1815500;78;21109;-81
2020/12/23 05:30:26;;;;;;;9.25;4.87;;;;;;;6.41;66.71;96620.88;1815262;78;22215;-82
2020/12/23 05:32:58;;;;;;;8.48;4.35;;;;;;;6.43;66.76;96623.70;1820404;78;21510;-80
2020/12/23 05:35:37;;;;;;;7.40;3.70;;;;;;;6.50;66.53;96618.81;1821059;78;21101;-79
2020/12/23 05:38:06;;;;;;;6.00;3.27;;;;;;;6.53;66.23;96626.42;1822029;78;21041;-80
2020/12/23 05:40:39;;;;;;;5.30;2.60;;;;;;;6.56;66.13;96626.16;1820633;77;21487;-83
2020/12/23 05:43:17;;;;;;;5.92;3.00;;;;;;;6.56;66.04;96622.24;1768017;78;22201;-82
2020/12/23 05:45:46;;;;;;;6.40;3.50;;;;;;;6.55;66.09;96623.68;1790359;78;21161;-80
2020/12/23 05:48:16;;;;;;;6.28;3.40;;;;;;;6.55;66.08;96625.81;1821467;78;21057;-83
2020/12/23 05:50:48;;;;;;;4.67;2.47;;;;;;;6.56;66.06;96618.32;1820904;78;21041;-81
2020/12/23 05:53:19;;;;;;;5.87;3.10;;;;;;;6.57;66.13;96623.90;1821333;78;21018;-79
2020/12/23 05:55:55;;;;;;;6.45;3.12;;;;;;;6.59;66.12;96631.65;1817126;78;22229;-83
2020/12/23 05:58:37;;;;;;;6.17;2.95;;;;;;;6.62;66.09;96628.29;1792993;78;21145;-81
2020/12/23 06:01:09;;;;;;;7.25;3.60;;;;;;;6.65;65.97;96625.44;1816142;78;21069;-83
2020/12/23 06:03:57;;;;;;;6.35;3.10;;;;;;;6.69;65.91;96629.45;1821206;78;21074;-82
2020/12/23 06:06:28;;;;;;;10.15;5.28;;;;;;;6.77;65.84;96622.31;1821074;78;21041;-83
2020/12/23 06:09:06;;;;;;;8.68;5.10;;;;;;;6.81;65.55;96621.08;1821188;78;21787;-83
2020/12/23 06:11:50;;;;;;;10.13;5.58;;;;;;;6.82;65.46;96635.00;1820899;78;20993;-81
2020/12/23 06:14:25;;;;;;;7.22;3.67;;;;;;;6.85;65.28;96630.36;1821079;78;21093;-80
2020/12/23 06:17:08;;;;;;;7.72;3.90;;;;;;;6.91;65.17;96632.95;1820418;77;21133;-82
2020/12/23 06:19:46;;;;;;;7.78;4.40;;;;;;;6.88;65.04;96618.34;1821028;78;21204;-80
2020/12/23 06:22:15;;;;;;;7.00;3.60;;;;;;;6.85;65.17;96627.73;1821024;78;21413;-81
2020/12/23 06:24:45;;;;;;;7.45;3.33;;;;;;;6.83;65.25;96627.05;1821208;78;21073;-80
2020/12/23 06:27:20;;;;;;;9.83;5.50;;;;;;;6.81;65.27;96631.55;1821808;78;21060;-81
2020/12/23 06:29:50;;;;;;;10.60;5.80;;;;;;;6.80;65.21;96623.35;1817149;78;21616;-80
2020/12/23 06:32:24;;;;;;;11.88;7.20;;;;;;;6.82;65.34;96626.70;1788013;78;21104;-80
2020/12/23 06:35:00;;;;;;;10.43;5.80;;;;;;;6.81;65.20;96624.18;1787266;78;21185;-79
2020/12/23 06:37:32;;;;;;;13.08;7.65;;;;;;;6.81;65.30;96620.25;1713299;82;21139;-82
2020/12/23 06:40:10;;;;;;;10.08;6.22;;;;;;;6.83;65.27;96620.98;1734375;81;21524;-80
2020/12/23 06:42:47;;;;;;;7.85;4.72;;;;;;;6.85;65.34;96622.98;1794287;78;21122;-81
2020/12/23 06:45:20;;;;;;;11.75;6.05;;;;;;;6.86;65.16;96628.09;1747619;82;21177;-80
2020/12/23 06:47:51;;;;;;;11.33;6.35;;;;;;;6.83;65.19;96629.66;1762541;81;22336;-79
2020/12/23 06:50:30;;;;;;;11.30;6.73;;;;;;;6.85;65.33;96630.36;1706888;82;21731;-81
2020/12/23 06:53:03;;;;;;;11.08;6.50;;;;;;;6.95;65.21;96644.36;1734781;82;21254;-80
2020/12/23 06:55:47;;;;;;;11.60;7.20;;;;;;;7.03;65.15;96641.59;1735461;82;21078;-81
2020/12/23 06:58:39;;;;;;;9.98;6.25;;;;;;;7.09;64.91;96648.94;1739023;81;21620;-83
2020/12/23 07:01:20;;;;;;;9.95;5.90;;;;;;;7.11;64.86;96646.53;1765516;81;21621;-82
2020/12/23 07:03:50;;;;;;;7.87;4.15;;;;;;;7.11;64.87;96655.70;1765330;81;21108;-81
2020/12/23 07:06:43;;;;;;;6.87;3.87;;;;;;;7.13;64.76;96653.80;1721466;81;21068;-81
2020/12/23 07:09:14;;;;;;;6.30;2.52;;;;;;;7.20;64.57;96660.67;1763732;81;21613;-82
2020/12/23 07:11:46;;;;;;;11.20;3.80;;;;;;;7.23;64.30;96653.41;1766042;81;21212;-82
2020/12/23 07:14:17;;;;;;;8.10;3.72;;;;;;;7.25;64.08;96652.45;1765292;81;21200;-80
2020/12/23 07:16:47;;;;;;;8.80;5.15;;;;;;;7.29;63.67;96658.59;1736516;81;21128;-80
2020/12/23 07:19:25;;;;;;;10.13;4.95;;;;;;;7.29;63.40;96656.45;1765630;81;21340;-80
2020/12/23 07:21:57;;;;;;;7.92;4.50;;;;;;;7.28;63.45;96665.27;1765458;81;21144;-81
2020/12/23 07:24:34;;;;;;;9.73;4.92;;;;;;;7.25;63.29;96662.92;1764563;81;21128;-81
2020/12/23 07:27:05;;;;;;;6.17;3.37;;;;;;;7.21;63.30;96658.41;1730371;82;21364;-81
2020/12/23 07:30:16;;;;;;;7.80;4.28;;;;;;;7.16;63.37;96657.47;1694789;82;21129;-83
2020/12/23 07:33:28;;;;;;;8.55;4.80;;;;;;;7.13;63.43;96656.42;1737190;81;21180;-83
2020/12/23 07:37:18;;;;;;;8.23;4.78;;;;;;;7.12;63.55;96651.33;1776588;78;21563;-82
2020/12/23 07:56:18;;;;;;;10.50;5.35;;;;;;;7.22;63.11;96669.23;1687446;80;21183;-83
2020/12/23 08:03:39;;;;;;;14.05;7.40;;;;;;;7.21;63.49;96674.12;1690647;78;22662;31
2020/12/23 08:07:05;;;;;;;11.15;6.53;;;;;;;7.24;63.56;96680.42;1735067;78;21175;-85
2020/12/23 08:25:32;;;;;;;10.90;6.70;;;;;;;7.56;63.13;96676.92;1716052;79;21305;31
2020/12/23 08:36:24;;;;;;;10.80;6.20;;;;;;;7.73;62.91;96692.06;1755006;76;21295;31
2020/12/23 09:28:15;;;;;;;11.57;5.22;;;;;;;7.93;61.84;96669.41;1773521;79;21867;-83
2020/12/23 09:31:36;;;;;;;13.43;5.42;;;;;;;7.84;61.82;96672.34;1748351;78;21398;-85
2020/12/23 09:35:41;;;;;;;8.53;4.80;;;;;;;7.84;61.84;96643.50;1659366;83;21163;-83
2020/12/23 09:47:18;;;;;;;8.98;5.00;;;;;;;7.99;61.49;96626.92;1733216;77;21201;-83
2020/12/23 09:51:26;;;;;;;12.27;7.60;;;;;;;8.02;61.53;96626.19;1661788;82;21255;31
2020/12/23 10:06:58;;;;;;;17.52;6.15;;;;;;;8.15;61.39;96619.40;1639393;82;23387;31
2020/12/23 10:27:58;;;;;;;10.28;5.37;;;;;;;8.11;62.26;96585.70;1700527;80;947622;-83
2020/12/23 10:31:23;;;;;;;11.48;6.20;;;;;;;8.17;62.12;96575.50;1771190;80;21252;-83
2020/12/23 10:34:35;;;;;;;8.65;5.40;;;;;;;8.26;62.13;96576.02;1727663;80;21024;-82
2020/12/23 10:38:32;;;;;;;8.58;5.83;;;;;;;8.22;62.27;96578.55;1680322;81;21266;31
2020/12/23 10:41:53;;;;;;;8.60;5.37;;;;;;;8.25;62.33;96574.85;1664302;83;21102;-82
2020/12/23 10:44:44;;;;;;;9.18;4.60;;;;;;;8.17;62.76;96578.13;1718753;83;21133;-83
2020/12/23 10:52:20;;;;;;;8.53;4.62;;;;;;;8.10;62.86;96573.07;1698171;79;23167;31
2020/12/23 10:55:52;;;;;;;12.25;6.37;;;;;;;8.13;62.72;96566.27;1735103;79;21303;-84
2020/12/23 10:59:44;;;;;;;8.40;4.73;;;;;;;8.08;63.06;96564.52;1688568;80;21223;31
2020/12/23 11:06:40;;;;;;;8.13;4.65;;;;;;;8.01;62.70;96573.89;1648607;82;21383;-83
2020/12/23 11:21:36;;;;;;;6.35;3.27;;;;;;;7.98;65.34;96587.25;1729672;81;21300;-84
2020/12/23 11:30:54;;;;;;;6.95;3.90;;;;;;;7.96;65.43;96583.45;1665601;83;21184;-82
2020/12/23 11:33:59;;;;;;;9.90;6.25;;;;;;;7.90;65.57;96580.06;1688088;83;21070;-82
2020/12/23 11:36:31;;;;;;;10.32;6.20;;;;;;;7.79;65.93;96585.87;1658098;82;21136;-81
2020/12/23 11:39:54;;;;;;;9.53;5.85;;;;;;;7.75;66.32;96585.30;1608745;86;21236;-83
2020/12/23 11:49:40;;;;;;;8.58;4.33;;;;;;;7.80;67.37;96572.63;1637371;81;21207;-83
2020/12/23 11:52:40;;;;;;;7.22;4.53;;;;;;;7.84;67.68;96577.14;1629013;83;21119;-83
2020/12/23 13:24:02;;;;;;;12.65;5.95;;;;;;;7.55;72.21;96655.13;1586990;86;21311;-84
2020/12/23 13:39:58;;;;;;;8.55;4.28;;;;;;;7.11;70.88;96660.11;1706941;82;21196;-83
2020/12/23 13:46:31;;;;;;;9.88;5.40;;;;;;;6.73;71.73;96658.00;1590799;84;21327;31
2020/12/23 13:50:07;;;;;;;13.38;4.97;;;;;;;6.70;72.01;96668.25;1578255;84;21115;-83
2020/12/23 13:53:27;;;;;;;8.58;4.40;;;;;;;6.66;72.15;96665.03;1656563;81;21353;-84
2020/12/23 13:56:58;;;;;;;8.98;4.87;;;;;;;6.56;72.41;96661.48;1675301;81;21231;31
2020/12/23 14:00:26;;;;;;;8.80;4.05;;;;;;;6.49;72.76;96659.48;1591249;86;21068;-82
2020/12/23 14:03:50;;;;;;;11.20;7.17;;;;;;;6.46;73.10;96658.41;1691071;81;21345;31
2020/12/23 14:48:39;;;;;;;10.43;6.10;;;;;;;6.55;74.14;96614.53;1577039;86;21327;-85
2020/12/23 14:51:38;;;;;;;11.33;6.45;;;;;;;6.62;73.84;96610.45;1845001;77;23371;-83
2020/12/23 14:55:26;;;;;;;;;;;;;;;;;;;;;
2020/12/23 14:59:34;;;;;;;6.80;4.55;;;;;;;6.64;73.83;96619.86;1651794;83;21303;-84
2020/12/23 15:02:51;;;;;;;7.67;4.37;;;;;;;6.71;73.81;96618.88;1617361;79;21161;-83
2020/12/23 15:06:18;;;;;;;8.25;4.37;;;;;;;6.83;73.36;96623.12;1678494;81;21048;-84
2020/12/23 15:09:31;;;;;;;8.15;4.28;;;;;;;6.86;73.08;96625.47;1643721;84;21152;-84
2020/12/23 15:35:05;;;;;;;12.30;6.47;;;;;;;6.67;73.40;96620.08;1762034;78;21542;31
2020/12/23 15:38:49;;;;;;;10.85;6.90;;;;;;;6.73;73.27;96627.42;1770558;77;21137;-83
2020/12/23 15:42:15;;;;;;;12.68;6.60;;;;;;;6.76;72.85;96629.81;1798827;76;21611;-87
2020/12/23 15:45:16;;;;;;;10.28;6.00;;;;;;;6.61;72.75;96629.25;1805465;78;21062;-84
2020/12/23 15:48:26;;;;;;;13.50;8.20;;;;;;;6.50;73.06;96629.27;1790602;77;21006;-82
2020/12/23 15:51:19;;;;;;;12.82;8.50;;;;;;;6.51;73.36;96632.72;1785608;80;21050;-84
2020/12/23 15:53:59;;;;;;;13.03;8.05;;;;;;;6.60;73.36;96630.69;1789467;78;21363;-85
2020/12/23 15:56:53;;;;;;;12.60;7.58;;;;;;;6.72;73.12;96632.31;1784668;79;21033;-82
2020/12/23 15:59:50;;;;;;;14.20;8.00;;;;;;;6.81;72.83;96630.24;1790803;78;21166;-84
2020/12/23 16:02:54;;;;;;;18.00;9.73;;;;;;;6.85;72.66;96632.14;1824981;78;21161;-83
2020/12/23 16:05:42;;;;;;;16.20;9.73;;;;;;;6.85;72.50;96626.91;1821962;77;21062;31
2020/12/23 16:09:21;;;;;;;13.72;7.28;;;;;;;6.86;72.53;96622.85;1791590;77;21283;-85
2020/12/23 16:12:25;;;;;;;12.85;6.87;;;;;;;6.87;72.62;96619.75;1770936;79;21157;-83
2020/12/23 16:19:07;;;;;;;42.07;23.83;;;;;;;6.74;72.78;96624.33;1731032;78;21201;-85
2020/12/23 16:22:19;;;;;;;32.88;19.40;;;;;;;6.79;72.73;96626.10;1790905;77;21157;-83
2020/12/23 16:25:10;;;;;;;43.05;25.72;;;;;;;6.86;72.54;96625.95;1750073;81;21385;-84
2020/12/23 16:27:49;;;;;;;24.40;14.47;;;;;;;6.85;72.51;96622.50;1779836;78;21173;-83
2020/12/23 16:30:45;;;;;;;21.77;14.53;;;;;;;6.86;72.60;96625.95;1771863;80;21225;-84
2020/12/23 16:33:35;;;;;;;27.32;17.95;;;;;;;6.84;72.42;96628.70;1747448;81;21180;-84
2020/12/23 16:36:31;;;;;;;28.60;18.40;;;;;;;6.82;72.51;96628.45;1713931;79;21178;-82
2020/12/23 16:39:08;;;;;;;33.00;21.23;;;;;;;6.87;72.34;96627.13;1748591;82;21363;-83
2020/12/23 16:41:44;;;;;;;27.77;17.95;;;;;;;6.90;72.40;96626.06;1748836;82;21598;-82
2020/12/23 16:44:18;;;;;;;;;;;;;;;6.94;72.20;96624.38;1750137;82;21175;-83
2020/12/23 16:46:53;;;;;;;20.77;13.28;;;;;;;6.88;72.14;96631.43;1748736;82;20237;-82
2020/12/23 16:49:28;;;;;;;17.35;11.70;;;;;;;6.83;72.37;96629.66;1748025;81;21189;-83
2020/12/23 16:52:08;;;;;;;12.70;8.48;;;;;;;6.81;72.32;96631.55;1748715;82;21403;-83
2020/12/23 16:54:50;;;;;;;9.73;6.67;;;;;;;6.75;72.38;96631.22;1726502;82;21261;-85
2020/12/23 16:57:47;;;;;;;9.35;6.50;;;;;;;6.65;72.67;96635.91;1696664;82;21306;-84
2020/12/23 17:00:21;;;;;;;10.50;6.28;;;;;;;6.69;72.82;96632.06;1706575;82;21258;-83
2020/12/23 17:03:32;;;;;;;10.30;6.30;;;;;;;6.77;72.51;96636.70;1717079;80;21220;-83
2020/12/23 17:06:40;;;;;;;8.28;5.37;;;;;;;6.76;72.36;96642.89;1702860;82;21102;-83
2020/12/23 17:09:36;;;;;;;15.90;9.25;;;;;;;6.74;72.23;96638.72;1716174;82;21176;-82
2020/12/23 17:12:33;;;;;;;15.72;9.18;;;;;;;6.61;72.31;96645.42;1698732;82;21152;-83
2020/12/23 17:15:25;;;;;;;11.73;6.58;;;;;;;6.56;72.52;96641.86;1707087;83;21147;-82
2020/12/23 17:17:57;;;;;;;9.40;5.60;;;;;;;6.52;72.50;96643.53;1736195;82;21078;-84
2020/12/23 17:20:26;;;;;;;8.03;4.95;;;;;;;6.49;72.65;96646.41;1734398;81;21419;-83
2020/12/23 17:22:57;;;;;;;8.33;5.03;;;;;;;6.46;72.78;96646.16;1730862;83;21082;-85
2020/12/23 17:25:30;;;;;;;9.30;4.95;;;;;;;6.48;72.82;96644.75;1693312;84;21069;-83
2020/12/23 17:28:03;;;;;;;8.60;5.53;;;;;;;6.48;72.62;96644.75;1730913;83;21157;-81
2020/12/23 17:30:34;;;;;;;9.40;5.83;;;;;;;6.42;72.80;96639.53;1735049;82;21138;-84
2020/12/23 17:33:13;;;;;;;10.55;5.83;;;;;;;6.42;72.77;96641.67;1736132;82;21508;-82
2020/12/23 17:35:45;;;;;;;13.78;8.05;;;;;;;6.44;72.74;96638.92;1735300;82;21092;-82
2020/12/23 17:38:17;;;;;;;12.25;7.10;;;;;;;6.49;72.48;96640.70;1735855;82;21599;-82
2020/12/23 17:40:48;;;;;;;10.90;7.42;;;;;;;6.48;72.48;96635.12;1736219;82;28288;-83
2020/12/23 17:43:21;;;;;;;11.20;6.87;;;;;;;6.47;72.36;96641.78;1735886;82;21169;-84
2020/12/23 17:45:51;;;;;;;16.00;10.88;;;;;;;6.44;72.48;96638.92;1735967;82;21358;-83
2020/12/23 17:48:34;;;;;;;11.90;8.00;;;;;;;6.45;72.50;96638.44;1736109;82;21189;-82
2020/12/23 17:51:07;;;;;;;12.37;7.97;;;;;;;6.44;72.39;96642.84;1706601;82;21173;-82
2020/12/23 17:53:38;;;;;;;12.45;8.23;;;;;;;6.42;72.48;96640.36;1736055;82;21059;-83
2020/12/23 17:56:12;;;;;;;11.50;7.33;;;;;;;6.42;72.30;96640.36;1706686;82;21173;-84
2020/12/23 17:58:43;;;;;;;12.60;6.92;;;;;;;6.38;72.36;96641.55;1735290;82;21372;-84
2020/12/23 18:01:43;;;;;;;10.18;5.42;;;;;;;6.34;72.32;96639.29;1735665;82;21103;-83
2020/12/23 18:04:57;;;;;;;8.93;5.22;;;;;;;6.33;72.47;96642.86;1736251;78;21054;31
2020/12/23 18:07:51;;;;;;;9.18;5.00;;;;;;;6.36;72.36;96642.16;1790030;80;21127;-83
2020/12/23 18:10:21;;;;;;;8.85;4.90;;;;;;;6.37;72.39;96641.20;1804872;77;21085;-82
2020/12/23 18:13:30;;;;;;;10.53;5.20;;;;;;;6.40;72.34;96640.11;1836302;77;21038;-83
2020/12/23 18:16:23;;;;;;;9.03;5.15;;;;;;;6.44;72.16;96646.77;1851420;77;21062;-83
2020/12/23 18:18:58;;;;;;;7.90;4.40;;;;;;;6.46;71.91;96637.48;1850910;77;21129;-84
2020/12/23 18:21:52;;;;;;;9.08;4.85;;;;;;;6.44;71.93;96637.61;1850694;77;21133;-84
2020/12/23 18:24:36;;;;;;;9.45;5.05;;;;;;;6.46;71.93;96637.48;1851431;77;21032;-84
2020/12/23 18:27:14;;;;;;;10.35;6.35;;;;;;;6.50;71.84;96631.06;1845520;77;21408;-81
2020/12/23 18:30:35;;;;;;;11.63;6.85;;;;;;;6.50;71.76;96625.83;1776100;80;21109;-84